»·PEaware :: N86GS KBUR-KLAS

N86GS :: KBUR-KLAS

FLIGHT INFORMATION

Flight Status: Arrived
Operator: Privately registered:
United States
More flights under this callsign
Pilot: Chris C. (10181)
Aircraft: Unknown
(B60T)
More flights by this aircraft type
Origin: KBUR Bob Hope-Burbank
United States
Destination: KLAS McCarran Intl
United States
More flights between these airports :: More routes between these airports
Route: VNY2 DAG CRESO3
File this flight plan on PilotEdge
Remarks: I-05 Test
Altitude:
(Current/Filed)
23,000ft
Speed:
(Current/Filed)
280kts
Departed: 15-Mar-16 08:15 AM
Arrived: 15-Mar-16 09:08 AM
Distance/Time
Traveled:
193nm/0:52
Distance/Time
To Go:
Arrived

Flight Plot

Page will automatically refresh every two minutes.


Map Options




Map Legend


Flown Route
Filed Route
Departure Airport
Arrival Airport
Navaid (VOR, NDB)
Fix

Horizontal Profiles

Position Reports

Time Latitude Longitude Heading Altitude Ground
Speed
15-Mar-16 07:52 34.201196 -118.359659 257 724ft 0kts
15-Mar-16 07:53 34.201196 -118.359659 257 724ft 0kts
15-Mar-16 07:54 34.201196 -118.359659 257 724ft 0kts
15-Mar-16 07:55 34.201196 -118.359659 257 724ft 0kts
15-Mar-16 07:56 34.201196 -118.359659 257 724ft 0kts
15-Mar-16 07:57 34.201196 -118.359659 257 724ft 0kts
15-Mar-16 07:58 34.201196 -118.359659 257 724ft 0kts
15-Mar-16 07:59 34.201196 -118.359659 257 724ft 0kts
15-Mar-16 08:00 34.201196 -118.359659 257 724ft 0kts
15-Mar-16 08:01 34.201196 -118.359659 257 724ft 0kts
15-Mar-16 08:02 34.201196 -118.359659 257 724ft 0kts
15-Mar-16 08:03 34.201195 -118.359665 257 724ft 0kts
15-Mar-16 08:04 34.203709 -118.359297 346 724ft 15kts
15-Mar-16 08:05 34.208442 -118.360599 346 724ft 18kts
15-Mar-16 08:06 34.212079 -118.361184 75 724ft 0kts
15-Mar-16 08:07 34.212080 -118.361181 75 724ft 0kts
15-Mar-16 08:08 34.205834 -118.358694 166 752ft 121kts
15-Mar-16 08:09 34.174759 -118.371752 223 3921ft 165kts
15-Mar-16 08:10 34.144371 -118.408037 228 7634ft 153kts
15-Mar-16 08:11 34.164818 -118.444875 8 9956ft 185kts
15-Mar-16 08:12 34.211728 -118.438204 3 12945ft 202kts
15-Mar-16 08:13 34.274602 -118.426410 7 13020ft 226kts
15-Mar-16 08:14 34.333404 -118.413382 4 15046ft 208kts
15-Mar-16 08:15 34.390280 -118.400772 5 17415ft 213kts
15-Mar-16 08:16 34.443484 -118.366780 46 19215ft 237kts
15-Mar-16 08:17 34.482905 -118.301581 46 21040ft 239kts
15-Mar-16 08:18 34.516237 -118.248193 45 22693ft 239kts
15-Mar-16 08:19 34.560003 -118.178317 46 23228ft 283kts
15-Mar-16 08:20 34.609491 -118.098905 46 23228ft 299kts
15-Mar-16 08:21 34.637786 -118.003494 79 23231ft 313kts
15-Mar-16 08:22 34.649599 -117.897456 78 23227ft 318kts
15-Mar-16 08:23 34.661191 -117.790691 78 23224ft 318kts
15-Mar-16 08:24 34.683591 -117.687807 67 23225ft 314kts
15-Mar-16 08:25 34.713917 -117.569325 67 23225ft 313kts
15-Mar-16 08:26 34.735226 -117.485646 67 23226ft 310kts
15-Mar-16 08:27 34.760745 -117.385267 67 23227ft 310kts
15-Mar-16 08:28 34.786184 -117.284824 67 23226ft 310kts
15-Mar-16 08:29 34.811472 -117.184593 67 23234ft 310kts
15-Mar-16 08:30 34.836776 -117.083908 67 23234ft 310kts
15-Mar-16 08:31 34.862014 -116.983106 67 23226ft 311kts
15-Mar-16 08:32 34.887272 -116.881952 67 23226ft 312kts
15-Mar-16 08:33 34.912362 -116.780963 67 23228ft 311kts
15-Mar-16 08:34 34.937440 -116.679592 68 23226ft 312kts
15-Mar-16 08:35 34.962877 -116.578369 62 23221ft 309kts
15-Mar-16 08:36 35.003105 -116.486798 54 23215ft 306kts
15-Mar-16 08:37 35.043689 -116.395247 54 23211ft 306kts
15-Mar-16 08:38 35.084111 -116.303946 54 23210ft 306kts
15-Mar-16 08:39 35.122667 -116.216625 54 22539ft 287kts
15-Mar-16 08:40 35.162166 -116.126926 54 21053ft 294kts
15-Mar-16 08:41 35.199547 -116.041778 54 19546ft 276kts
15-Mar-16 08:42 35.235768 -115.959314 53 18207ft 280kts
15-Mar-16 08:43 35.272493 -115.875112 54 16906ft 275kts
15-Mar-16 08:44 35.308244 -115.793128 55 15603ft 269kts
15-Mar-16 08:45 35.354671 -115.728394 42 13134ft 243kts
15-Mar-16 08:46 35.399503 -115.668686 45 12010ft 248kts
15-Mar-16 08:47 35.446818 -115.605321 45 12007ft 254kts
15-Mar-16 08:48 35.494110 -115.541981 44 12011ft 251kts
15-Mar-16 08:49 35.539648 -115.481167 44 12014ft 241kts
15-Mar-16 08:50 35.585290 -115.419940 44 12018ft 243kts
15-Mar-16 08:51 35.630823 -115.358680 44 12020ft 243kts
15-Mar-16 08:52 35.682585 -115.306560 16 11602ft 247kts
15-Mar-16 08:53 35.742510 -115.283575 13 10409ft 224kts
15-Mar-16 08:54 35.807029 -115.262247 13 9215ft 246kts
15-Mar-16 08:55 35.865378 -115.244797 12 7991ft 213kts
15-Mar-16 08:56 35.920271 -115.228855 13 6913ft 175kts
15-Mar-16 08:57 35.975307 -115.216869 7 6131ft 207kts
15-Mar-16 08:58 36.018502 -115.204024 21 5022ft 131kts
15-Mar-16 08:59 36.046485 -115.188063 26 3578ft 100kts
15-Mar-16 09:00 36.070241 -115.173256 26 2350ft 88kts
15-Mar-16 09:01 36.082279 -115.167311 300 2118ft 11kts
15-Mar-16 09:02 36.082364 -115.167490 299 2118ft 0kts

Navigation Log

Ident Type
Flight plan parsing failed, navigation log unavailable